Time;durP1;ratioP1;P1;durP2;ratioP2;P2;SDS_P1;SDS_P2;PMS_P1;PMS_P2;Temp;Humidity;BMP_temperature;BMP_pressure;BME280_temperature;BME280_humidity;BME280_pressure;Samples;Min_cycle;Max_cycle;Signal;HPM_P1;HPM_P2
2023/12/27 00:00:04;;;;;;;16.80;7.43;;;;;;;6.50;100.00;102015.84;5291302;28;20138;-82
2023/12/27 00:02:36;;;;;;;18.77;7.32;;;;;;;6.49;100.00;102011.56;5286426;28;20036;-81
2023/12/27 00:05:08;;;;;;;18.85;6.95;;;;;;;6.49;100.00;102006.38;5288820;28;20485;-80
2023/12/27 00:07:40;;;;;;;16.92;7.38;;;;;;;6.49;100.00;102008.13;5288090;28;20414;-81
2023/12/27 00:10:12;;;;;;;16.17;7.25;;;;;;;6.42;100.00;101991.13;5288544;28;20548;-82
2023/12/27 00:12:43;;;;;;;14.95;7.85;;;;;;;6.48;100.00;101996.03;5289632;28;20031;-81
2023/12/27 00:15:15;;;;;;;13.82;6.95;;;;;;;6.42;100.00;101985.91;5288796;28;20032;-80
2023/12/27 00:17:47;;;;;;;16.63;6.88;;;;;;;6.49;100.00;101995.13;5287619;28;20116;-81
2023/12/27 00:20:19;;;;;;;13.60;6.95;;;;;;;6.46;100.00;101996.09;5287202;28;20036;-80
2023/12/27 00:22:51;;;;;;;16.70;7.03;;;;;;;6.42;100.00;101991.97;5289857;28;20355;-81
2023/12/27 00:25:23;;;;;;;16.77;8.13;;;;;;;6.42;100.00;101993.72;5285842;28;20032;-81
2023/12/27 00:27:55;;;;;;;13.95;6.93;;;;;;;6.47;100.00;102002.16;5287160;28;20111;-81
2023/12/27 00:30:27;;;;;;;23.15;6.85;;;;;;;6.45;100.00;101994.44;5287365;28;20124;-81
2023/12/27 00:32:58;;;;;;;15.43;7.28;;;;;;;6.47;100.00;101997.78;5288137;28;20154;-81
2023/12/27 00:35:30;;;;;;;15.20;7.38;;;;;;;6.48;100.00;101990.84;5279821;28;20040;-80
2023/12/27 00:38:02;;;;;;;14.35;6.55;;;;;;;6.49;100.00;101990.75;5288380;28;20516;-81
2023/12/27 00:40:34;;;;;;;17.98;7.53;;;;;;;6.50;100.00;101996.78;5279183;28;20041;-81
2023/12/27 00:43:06;;;;;;;16.25;7.03;;;;;;;6.50;100.00;101992.44;5274500;28;20120;-81
2023/12/27 00:45:38;;;;;;;17.45;6.70;;;;;;;6.49;100.00;101995.13;5288347;28;20034;-81
2023/12/27 00:48:10;;;;;;;12.75;5.75;;;;;;;6.52;100.00;101994.97;5284634;28;20061;-81
2023/12/27 00:50:42;;;;;;;14.88;7.20;;;;;;;6.45;100.00;101980.56;5283549;28;20032;-80
2023/12/27 00:53:14;;;;;;;17.50;6.78;;;;;;;6.48;100.00;101983.88;5279557;28;20024;-81
2023/12/27 00:55:45;;;;;;;21.33;8.18;;;;;;;6.48;100.00;101998.66;5284179;28;20230;-80
2023/12/27 00:58:17;;;;;;;17.90;7.13;;;;;;;6.44;100.00;101995.34;5280391;28;20030;-80
2023/12/27 01:00:49;;;;;;;15.38;7.25;;;;;;;6.44;100.00;101987.53;5284204;28;20119;-81
2023/12/27 01:03:21;;;;;;;16.27;6.50;;;;;;;6.45;100.00;101985.78;5282526;28;20032;-81
2023/12/27 01:05:53;;;;;;;15.85;6.43;;;;;;;6.38;100.00;101982.63;5282566;28;20043;-79
2023/12/27 01:08:25;;;;;;;14.30;6.10;;;;;;;6.36;100.00;101986.22;5282703;28;20031;-80
2023/12/27 01:10:57;;;;;;;17.20;6.20;;;;;;;6.28;100.00;101974.41;5280747;28;20031;-80
2023/12/27 01:13:29;;;;;;;16.95;6.32;;;;;;;6.29;100.00;101968.31;5281611;28;20040;-80
2023/12/27 01:16:01;;;;;;;15.90;6.53;;;;;;;6.27;100.00;101967.53;5262521;28;20044;-80
2023/12/27 01:18:33;;;;;;;13.55;6.30;;;;;;;6.22;100.00;101969.53;5281747;28;20115;-80
2023/12/27 01:21:05;;;;;;;13.68;5.90;;;;;;;6.20;100.00;101963.53;5279514;28;20397;-80
2023/12/27 01:23:37;;;;;;;17.42;7.13;;;;;;;6.16;100.00;101961.16;5281715;28;20033;-80
2023/12/27 01:26:09;;;;;;;14.50;6.05;;;;;;;6.08;100.00;101958.94;5280687;28;20034;-82
2023/12/27 01:28:41;;;;;;;16.20;6.38;;;;;;;6.08;100.00;101964.13;5280758;28;20038;-80
2023/12/27 01:31:13;;;;;;;12.32;6.15;;;;;;;6.01;100.00;101958.38;5270864;28;20039;-81
2023/12/27 01:33:45;;;;;;;12.20;6.88;;;;;;;6.01;100.00;101960.97;5284113;28;20056;-82
2023/12/27 01:36:19;;;;;;;13.75;6.68;;;;;;;5.99;100.00;101952.41;5284780;28;20051;-81
2023/12/27 01:38:51;;;;;;;15.50;7.25;;;;;;;6.00;100.00;101963.66;5278542;28;20028;-80
2023/12/27 01:41:23;;;;;;;14.68;6.65;;;;;;;5.97;100.00;101959.44;5268237;28;20046;-80
2023/12/27 01:43:54;;;;;;;13.82;6.68;;;;;;;6.02;100.00;101970.47;5283892;28;20040;-80
2023/12/27 01:46:27;;;;;;;14.88;6.97;;;;;;;6.00;100.00;101967.09;5280457;28;20032;-82
2023/12/27 01:49:00;;;;;;;18.13;7.97;;;;;;;6.00;100.00;101971.47;5279102;28;20054;-80
2023/12/27 01:51:33;;;;;;;16.80;7.15;;;;;;;5.98;100.00;101976.72;5282336;28;20035;-83
2023/12/27 01:54:05;;;;;;;14.38;6.57;;;;;;;6.04;100.00;101986.00;5284893;28;20047;-83
2023/12/27 01:56:37;;;;;;;15.68;6.50;;;;;;;6.00;100.00;101980.09;5284400;28;20329;-80
2023/12/27 01:59:08;;;;;;;17.85;7.43;;;;;;;6.06;100.00;101974.63;5282461;28;20203;-81
2023/12/27 02:01:40;;;;;;;14.13;6.85;;;;;;;6.02;100.00;101960.09;5285293;28;20789;-81
2023/12/27 02:04:12;;;;;;;15.43;6.82;;;;;;;6.11;100.00;101963.16;5285668;28;20035;-81
2023/12/27 02:06:44;;;;;;;14.85;6.75;;;;;;;6.07;100.00;101952.88;5287956;28;20038;-81
2023/12/27 02:09:17;;;;;;;19.75;6.60;;;;;;;6.14;100.00;101962.97;5276328;28;20425;-81
2023/12/27 02:11:49;;;;;;;12.23;6.07;;;;;;;6.13;100.00;101956.09;5288554;28;20024;-81
2023/12/27 02:14:21;;;;;;;17.50;6.93;;;;;;;6.14;100.00;101953.44;5287343;28;20036;-81
2023/12/27 02:16:53;;;;;;;14.80;6.45;;;;;;;6.15;100.00;101965.53;5289729;28;20465;-80
2023/12/27 02:19:28;;;;;;;12.63;5.70;;;;;;;6.18;100.00;101954.97;5287219;28;20043;-80
2023/12/27 02:22:02;;;;;;;12.93;6.47;;;;;;;6.11;100.00;101955.34;5275952;28;20051;-80
2023/12/27 02:24:35;;;;;;;21.95;7.05;;;;;;;6.15;100.00;101960.31;5288026;28;20052;-81
2023/12/27 02:27:06;;;;;;;18.10;6.82;;;;;;;6.17;100.00;101947.22;5288711;28;20035;-80
2023/12/27 02:29:38;;;;;;;16.80;7.03;;;;;;;6.16;100.00;101940.34;5289647;28;20469;-82
2023/12/27 02:32:10;;;;;;;13.10;5.45;;;;;;;6.15;100.00;101934.31;5288038;28;20046;-81
2023/12/27 02:34:42;;;;;;;12.50;5.85;;;;;;;6.16;100.00;101937.75;5288048;28;20031;-82
2023/12/27 02:37:14;;;;;;;15.05;5.55;;;;;;;6.11;100.00;101926.72;5289319;28;20034;-80
2023/12/27 02:39:46;;;;;;;14.50;5.70;;;;;;;6.12;100.00;101934.44;5289126;28;20037;-81
2023/12/27 02:42:18;;;;;;;17.55;6.50;;;;;;;6.15;100.00;101936.91;5276107;28;20040;-80
2023/12/27 02:44:50;;;;;;;18.73;6.15;;;;;;;6.15;100.00;101926.50;5276949;28;20047;-81
2023/12/27 02:47:22;;;;;;;15.75;5.28;;;;;;;6.14;100.00;101930.03;5288372;28;20031;-81
2023/12/27 02:49:53;;;;;;;15.57;5.95;;;;;;;6.16;100.00;101920.38;5283737;28;20036;-80
2023/12/27 02:52:25;;;;;;;15.98;5.97;;;;;;;6.15;100.00;101921.28;5288583;28;20031;-81
2023/12/27 02:54:57;;;;;;;11.63;5.22;;;;;;;6.12;100.00;101912.78;5284857;28;20518;-81
2023/12/27 02:57:29;;;;;;;15.63;6.00;;;;;;;6.16;100.00;101914.31;5288264;28;20040;-81
2023/12/27 03:00:03;;;;;;;16.20;6.55;;;;;;;6.09;100.00;101909.41;5285727;28;20051;-80
2023/12/27 03:02:35;;;;;;;18.92;6.00;;;;;;;6.15;100.00;101918.69;5285228;28;20501;-80
2023/12/27 03:05:07;;;;;;;12.85;5.28;;;;;;;6.13;100.00;101899.69;5287627;28;20032;-80
2023/12/27 03:07:39;;;;;;;16.50;6.07;;;;;;;6.15;100.00;101894.44;5285273;28;20039;-81
2023/12/27 03:10:11;;;;;;;16.00;6.15;;;;;;;6.13;100.00;101883.25;5289935;28;20412;-81
2023/12/27 03:12:43;;;;;;;14.77;5.90;;;;;;;6.24;100.00;101886.16;5287605;28;20036;-81
2023/12/27 03:15:15;;;;;;;14.10;4.93;;;;;;;6.20;100.00;101887.22;5289290;28;20031;-81
2023/12/27 03:17:47;;;;;;;14.60;5.55;;;;;;;6.22;100.00;101880.22;5286977;28;20039;-80
2023/12/27 03:20:19;;;;;;;16.48;6.05;;;;;;;6.18;100.00;101863.06;5288502;28;20178;-81
2023/12/27 03:22:50;;;;;;;19.90;6.20;;;;;;;6.24;100.00;101853.16;5287741;28;20036;-80
2023/12/27 03:25:22;;;;;;;15.88;5.68;;;;;;;6.24;100.00;101854.94;5286311;28;20497;-80
2023/12/27 03:27:54;;;;;;;13.07;5.70;;;;;;;6.24;100.00;101855.78;5287109;28;21394;-81
2023/12/27 03:30:26;;;;;;;14.05;5.78;;;;;;;6.27;100.00;101860.81;5274845;28;20036;-81
2023/12/27 03:32:58;;;;;;;15.75;5.95;;;;;;;6.27;100.00;101860.81;5288322;28;20110;-80
2023/12/27 03:35:30;;;;;;;12.27;5.40;;;;;;;6.31;100.00;101866.72;5275215;28;20052;-81
2023/12/27 03:38:02;;;;;;;13.30;6.15;;;;;;;6.28;100.00;101852.09;5285547;28;20114;-82
2023/12/27 03:40:34;;;;;;;15.13;5.75;;;;;;;6.27;100.00;101847.81;5287831;28;20284;-81
2023/12/27 03:43:06;;;;;;;15.23;5.82;;;;;;;6.27;100.00;101831.38;5286702;28;20024;-82
2023/12/27 03:45:38;;;;;;;13.13;5.57;;;;;;;6.29;100.00;101829.53;5286673;28;20766;-80
2023/12/27 03:48:10;;;;;;;16.05;5.47;;;;;;;6.29;100.00;101816.53;5286043;28;20032;-80
2023/12/27 03:50:42;;;;;;;11.68;5.50;;;;;;;6.27;100.00;101818.34;5285891;28;20127;-80
2023/12/27 03:53:13;;;;;;;12.02;5.40;;;;;;;6.27;100.00;101818.34;5286192;28;20031;-82
2023/12/27 03:55:45;;;;;;;15.77;6.45;;;;;;;6.26;100.00;101809.72;5282048;28;20044;-81
2023/12/27 03:58:18;;;;;;;11.32;5.68;;;;;;;6.28;100.00;101815.66;5281300;28;20028;-80
2023/12/27 04:00:49;;;;;;;20.42;6.05;;;;;;;6.27;100.00;101803.56;5284398;28;20473;-81
2023/12/27 04:03:21;;;;;;;15.95;5.80;;;;;;;6.28;100.00;101794.84;5284161;28;20038;-80
2023/12/27 04:05:53;;;;;;;15.25;6.15;;;;;;;6.34;100.00;101791.94;5281949;28;20042;-82
2023/12/27 04:08:25;;;;;;;16.55;6.05;;;;;;;6.38;100.00;101787.41;5281286;28;20307;-80
2023/12/27 04:10:57;;;;;;;15.68;6.32;;;;;;;6.38;100.00;101790.00;5283537;28;20024;-80
2023/12/27 04:13:29;;;;;;;18.20;6.47;;;;;;;6.36;100.00;101786.63;5281207;28;20040;-80
2023/12/27 04:16:01;;;;;;;14.05;5.82;;;;;;;6.39;100.00;101785.66;5283621;28;20472;-80
2023/12/27 04:18:33;;;;;;;13.32;6.22;;;;;;;6.45;100.00;101785.34;5281525;28;20351;-80
2023/12/27 04:21:05;;;;;;;16.73;6.43;;;;;;;6.47;100.00;101779.09;5281945;28;20058;-80
2023/12/27 04:23:36;;;;;;;12.90;6.38;;;;;;;6.44;100.00;101765.41;5282814;28;20051;-82
2023/12/27 04:26:08;;;;;;;15.35;6.57;;;;;;;6.48;100.00;101766.97;5283145;28;20037;-80
2023/12/27 04:28:40;;;;;;;12.48;6.32;;;;;;;6.47;100.00;101760.88;5281241;28;20074;-80
2023/12/27 04:31:12;;;;;;;13.73;6.30;;;;;;;6.48;100.00;101757.38;5281222;28;20040;-80
2023/12/27 04:33:44;;;;;;;13.43;6.25;;;;;;;6.56;100.00;101786.44;5282265;28;20505;-80
2023/12/27 04:36:16;;;;;;;16.75;6.78;;;;;;;6.52;100.00;101766.72;5280025;28;20036;-80
2023/12/27 04:38:48;;;;;;;16.48;6.90;;;;;;;6.60;100.00;101775.88;5280762;28;20032;-81
2023/12/27 04:41:20;;;;;;;18.42;7.22;;;;;;;6.65;100.00;101776.47;5280689;28;20684;-80
2023/12/27 04:43:52;;;;;;;16.38;6.68;;;;;;;6.69;100.00;101778.81;5281877;28;20378;-80
2023/12/27 04:46:23;;;;;;;13.80;5.88;;;;;;;6.72;100.00;101775.22;5282659;28;20043;-80
2023/12/27 04:48:55;;;;;;;13.57;6.05;;;;;;;6.69;100.00;101763.19;5281081;28;20024;-82
2023/12/27 04:51:27;;;;;;;13.70;6.45;;;;;;;6.75;100.00;101770.69;5283565;28;20036;-80
2023/12/27 04:53:59;;;;;;;18.42;6.90;;;;;;;6.78;100.00;101765.31;5281308;28;20440;-80
2023/12/27 04:56:31;;;;;;;14.32;5.72;;;;;;;6.81;100.00;101762.53;5262756;28;20070;-80
2023/12/27 04:59:03;;;;;;;14.50;5.72;;;;;;;6.83;100.00;101765.91;5282826;28;20042;-80
2023/12/27 05:01:35;;;;;;;12.88;6.57;;;;;;;6.86;100.00;101754.47;5282943;28;20157;-80
2023/12/27 05:04:07;;;;;;;12.93;5.78;;;;;;;6.88;100.00;101749.19;5284560;28;20028;-80
2023/12/27 05:06:38;;;;;;;18.75;6.75;;;;;;;6.86;100.00;101744.06;5286022;28;20047;-80
2023/12/27 05:09:10;;;;;;;16.15;6.50;;;;;;;6.85;100.00;101734.53;5284824;28;20470;-80
2023/12/27 05:11:42;;;;;;;17.42;5.95;;;;;;;6.92;100.00;101732.44;5283084;28;20412;-81
2023/12/27 05:14:17;;;;;;;12.88;5.95;;;;;;;7.01;100.00;101731.97;5284719;28;20036;-81
2023/12/27 05:16:50;;;;;;;12.75;6.07;;;;;;;6.95;100.00;101735.72;5286394;28;20311;-80
2023/12/27 05:19:22;;;;;;;;;;;;;;;7.52;100.00;101732.53;5273395;28;20505;-81
2023/12/27 05:21:54;;;;;;;14.45;6.30;;;;;;;7.00;100.00;101728.50;5287637;28;19920;-82
2023/12/27 05:24:26;;;;;;;12.65;5.65;;;;;;;6.97;100.00;101723.47;5287997;28;20028;-81
2023/12/27 05:26:58;;;;;;;15.02;6.10;;;;;;;6.94;100.00;101715.81;5275252;28;20139;-81
2023/12/27 05:29:29;;;;;;;11.73;5.43;;;;;;;6.95;100.00;101721.88;5286928;28;20596;-80
2023/12/27 05:32:01;;;;;;;13.93;6.32;;;;;;;6.93;100.00;101708.06;5288521;28;20392;-80
2023/12/27 05:34:33;;;;;;;16.38;6.10;;;;;;;6.99;100.00;101707.75;5286655;28;20036;-81
2023/12/27 05:37:06;;;;;;;14.85;6.45;;;;;;;6.99;100.00;101703.38;5287581;28;20118;-81
2023/12/27 05:39:38;;;;;;;15.27;5.82;;;;;;;7.02;100.00;101697.16;5286646;28;20050;-80
2023/12/27 05:42:10;;;;;;;18.15;6.80;;;;;;;6.95;100.00;101691.44;5293545;28;20036;-81
2023/12/27 05:44:42;;;;;;;15.82;6.35;;;;;;;6.99;100.00;101692.13;5279126;28;20050;-81
2023/12/27 05:47:13;;;;;;;15.25;6.70;;;;;;;7.07;100.00;101705.53;5290846;28;20855;-81
2023/12/27 05:49:45;;;;;;;13.48;6.47;;;;;;;7.06;100.00;101702.09;5292149;28;20036;-81
2023/12/27 05:52:17;;;;;;;14.68;6.47;;;;;;;7.07;100.00;101690.75;5289702;28;20287;-80
2023/12/27 05:54:49;;;;;;;12.52;6.60;;;;;;;7.07;100.00;101690.75;5290555;28;20035;-81
2023/12/27 05:57:22;;;;;;;14.43;6.25;;;;;;;7.09;100.00;101671.59;5292985;28;20124;-81
2023/12/27 05:59:54;;;;;;;15.35;7.00;;;;;;;7.19;100.00;101685.75;5289371;28;20500;-80
2023/12/27 06:02:26;;;;;;;12.45;6.00;;;;;;;7.13;100.00;101668.72;5290832;28;20104;-80
2023/12/27 06:04:57;;;;;;;15.02;6.07;;;;;;;7.14;100.00;101669.56;5273183;28;20050;-80
2023/12/27 06:07:31;;;;;;;15.48;6.38;;;;;;;7.17;100.00;101672.84;5289905;28;20111;-81
2023/12/27 06:10:05;;;;;;;13.77;6.47;;;;;;;7.19;100.00;101667.53;5290466;28;20040;-81
2023/12/27 06:12:37;;;;;;;12.40;6.53;;;;;;;7.20;100.00;101671.84;5289236;28;21092;-81
2023/12/27 06:15:10;;;;;;;15.10;6.45;;;;;;;7.20;100.00;101658.81;5289218;28;20033;-81
2023/12/27 06:17:42;;;;;;;12.98;6.40;;;;;;;7.25;100.00;101660.19;5288867;28;20032;-81
2023/12/27 06:20:14;;;;;;;14.65;6.20;;;;;;;7.13;100.00;101647.03;5287784;28;20032;-80
2023/12/27 06:22:46;;;;;;;15.98;6.28;;;;;;;7.24;100.00;101645.50;5289228;28;20092;-81
2023/12/27 06:25:18;;;;;;;13.38;6.10;;;;;;;7.28;100.00;101643.56;5291421;28;20028;-80
2023/12/27 06:27:50;;;;;;;17.13;5.90;;;;;;;7.27;100.00;101639.25;5288474;28;20402;-80
2023/12/27 06:30:21;;;;;;;13.73;6.28;;;;;;;7.30;100.00;101631.25;5291210;28;20159;-79
2023/12/27 06:32:54;;;;;;;10.65;5.50;;;;;;;7.36;100.00;101628.31;5291501;28;20032;-80
2023/12/27 06:35:26;;;;;;;13.48;6.47;;;;;;;7.34;100.00;101619.72;5288517;28;20036;-82
2023/12/27 06:37:58;;;;;;;11.45;6.00;;;;;;;7.36;100.00;101611.81;5288166;28;20470;-81
2023/12/27 06:40:30;;;;;;;12.98;6.13;;;;;;;7.42;100.00;101614.06;5288101;28;20053;-80
2023/12/27 06:43:02;;;;;;;9.88;6.13;;;;;;;7.42;100.00;101620.09;5285996;28;20501;-80
2023/12/27 06:45:34;;;;;;;9.45;6.18;;;;;;;7.35;100.00;101611.00;5288570;28;20036;-81
2023/12/27 06:48:06;;;;;;;11.05;6.05;;;;;;;7.42;100.00;101601.84;5282874;28;20036;-80
2023/12/27 06:50:38;;;;;;;10.50;6.22;;;;;;;7.48;100.00;101605.88;5283960;28;20025;-81
2023/12/27 06:53:10;;;;;;;11.43;6.40;;;;;;;7.52;100.00;101596.94;5285445;28;20473;-80
2023/12/27 06:55:42;;;;;;;11.73;6.15;;;;;;;7.53;100.00;101596.84;5284829;28;20312;-81
2023/12/27 06:58:14;;;;;;;9.65;5.50;;;;;;;7.57;100.00;101594.88;5288744;28;20044;-81
2023/12/27 07:00:45;;;;;;;10.60;6.80;;;;;;;7.60;100.00;101594.72;5290498;28;20028;-81
2023/12/27 07:03:17;;;;;;;8.52;5.72;;;;;;;7.59;100.00;101581.78;5286931;28;20032;-81
2023/12/27 07:05:49;;;;;;;6.53;5.30;;;;;;;7.64;100.00;101588.38;5287684;28;20040;-81
2023/12/27 07:08:21;;;;;;;6.80;5.88;;;;;;;7.69;100.00;101588.09;5287771;28;20126;-82
2023/12/27 07:10:53;;;;;;;6.38;5.40;;;;;;;7.70;100.00;101592.41;5291198;28;20115;-80
2023/12/27 07:13:25;;;;;;;6.90;5.80;;;;;;;7.72;100.00;101593.97;5289101;28;20122;-80
2023/12/27 07:15:57;;;;;;;6.55;5.63;;;;;;;7.71;100.00;101573.19;5287461;28;20114;-82
2023/12/27 07:18:30;;;;;;;7.45;5.53;;;;;;;7.79;100.00;101584.81;5282560;28;20048;-84
2023/12/27 07:21:04;;;;;;;7.30;5.55;;;;;;;7.84;100.00;101574.13;5284570;28;20489;-82
2023/12/27 07:23:36;;;;;;;6.72;5.93;;;;;;;7.85;100.00;101575.81;5289898;28;20032;-82
2023/12/27 07:26:12;;;;;;;7.05;5.68;;;;;;;7.98;100.00;101576.72;5286228;28;20032;-81
2023/12/27 07:28:44;;;;;;;7.95;5.60;;;;;;;7.88;100.00;101573.00;5288911;28;20028;-81
2023/12/27 07:31:16;;;;;;;8.63;6.23;;;;;;;7.96;100.00;101573.38;5288629;28;20043;-81
2023/12/27 07:33:49;;;;;;;7.18;6.03;;;;;;;7.99;100.00;101572.31;5289580;28;20025;-81
2023/12/27 07:36:21;;;;;;;6.63;5.60;;;;;;;8.06;100.00;101576.22;5288346;28;20035;-81
2023/12/27 07:38:53;;;;;;;7.93;5.90;;;;;;;8.06;100.00;101573.63;5288841;28;20482;-80
2023/12/27 07:41:24;;;;;;;9.90;6.43;;;;;;;8.10;100.00;101569.03;5287200;28;20126;-81
2023/12/27 07:43:56;;;;;;;8.90;6.50;;;;;;;8.06;100.00;101563.19;5288356;28;20114;-82
2023/12/27 07:46:28;;;;;;;7.82;6.38;;;;;;;8.07;100.00;101567.50;5291123;28;20032;-81
2023/12/27 07:49:02;;;;;;;8.20;6.60;;;;;;;8.14;100.00;101579.19;5286571;28;20036;-81
2023/12/27 07:51:33;;;;;;;7.72;6.55;;;;;;;8.16;100.00;101568.69;5285329;28;20032;-81
2023/12/27 07:54:05;;;;;;;7.70;6.30;;;;;;;8.19;100.00;101571.94;5289042;28;20042;-81
2023/12/27 07:56:37;;;;;;;8.30;6.22;;;;;;;8.25;100.00;101558.47;5289273;28;20091;-81
2023/12/27 07:59:09;;;;;;;7.38;6.40;;;;;;;8.25;100.00;101555.84;5289757;28;20036;-81
2023/12/27 08:01:41;;;;;;;7.47;6.20;;;;;;;8.31;100.00;101551.19;5291266;28;20032;-81
2023/12/27 08:04:13;;;;;;;6.82;5.95;;;;;;;8.36;100.00;101541.28;5290094;28;20012;-81
2023/12/27 08:06:45;;;;;;;10.27;6.65;;;;;;;8.42;100.00;101551.38;5286620;28;20039;-82
2023/12/27 08:09:18;;;;;;;7.83;6.43;;;;;;;8.42;100.00;101540.94;5290000;28;20029;-82
2023/12/27 08:11:51;;;;;;;10.60;7.07;;;;;;;8.46;100.00;101550.25;5290947;28;20450;-82
2023/12/27 08:14:23;;;;;;;9.30;6.43;;;;;;;8.56;100.00;101545.25;5287827;28;20024;-82
2023/12/27 08:16:55;;;;;;;8.63;6.65;;;;;;;8.57;100.00;101549.56;5295737;28;20672;-82
2023/12/27 08:19:27;;;;;;;9.13;6.30;;;;;;;8.61;100.00;101545.81;5290044;28;20032;-82
2023/12/27 08:21:59;;;;;;;7.80;6.10;;;;;;;8.62;100.00;101537.84;5286261;28;20050;-83
2023/12/27 08:24:31;;;;;;;8.13;6.05;;;;;;;8.64;100.00;101532.56;5283981;28;20032;-85
2023/12/27 08:27:03;;;;;;;8.33;6.87;;;;;;;8.71;100.00;101521.59;5287900;28;20482;-82
2023/12/27 08:29:35;;;;;;;7.90;6.50;;;;;;;8.71;100.00;101516.38;5269986;28;20711;-82
2023/12/27 08:32:08;;;;;;;6.95;6.20;;;;;;;8.72;100.00;101520.66;5287327;28;20042;-81
2023/12/27 08:34:40;;;;;;;8.30;6.07;;;;;;;8.68;100.00;101502.69;5288962;28;20040;-82
2023/12/27 08:37:12;;;;;;;9.30;6.40;;;;;;;8.72;100.00;101519.81;5287447;28;20111;-82
2023/12/27 08:39:44;;;;;;;9.60;6.32;;;;;;;8.73;100.00;101508.44;5284246;28;20035;-82
2023/12/27 08:42:16;;;;;;;8.75;6.35;;;;;;;8.71;100.00;101500.69;5271336;28;20325;-81
2023/12/27 08:44:47;;;;;;;6.57;5.70;;;;;;;8.74;100.00;101505.69;5290325;28;20040;-82
2023/12/27 08:47:20;;;;;;;8.07;6.35;;;;;;;8.77;100.00;101504.66;5288118;28;20551;-82
2023/12/27 08:49:52;;;;;;;8.55;5.97;;;;;;;8.73;100.00;101492.75;5286428;28;20028;-82
2023/12/27 08:52:25;;;;;;;9.07;5.60;;;;;;;8.87;100.00;101510.97;5287898;28;20043;-82
2023/12/27 08:54:58;;;;;;;7.97;5.78;;;;;;;8.86;100.00;101485.75;5289552;28;20063;-82
2023/12/27 08:57:30;;;;;;;7.65;5.28;;;;;;;8.88;100.00;101477.81;5287489;28;20032;-82
2023/12/27 09:00:02;;;;;;;7.70;5.50;;;;;;;8.93;100.00;101491.41;5290325;28;20030;-82
2023/12/27 09:02:34;;;;;;;6.37;5.33;;;;;;;8.97;100.00;101482.41;5288477;28;20051;-82
2023/12/27 09:05:06;;;;;;;7.18;4.80;;;;;;;8.96;100.00;101489.41;5286470;28;20115;-82
2023/12/27 09:07:38;;;;;;;8.23;5.30;;;;;;;9.01;100.00;101482.09;5287958;28;20033;-82
2023/12/27 09:10:10;;;;;;;6.20;5.45;;;;;;;9.02;100.00;101483.78;5286344;28;20033;-82
2023/12/27 09:12:43;;;;;;;6.68;5.03;;;;;;;9.07;100.00;101485.25;5287002;28;20157;-82
2023/12/27 09:15:15;;;;;;;7.10;4.85;;;;;;;9.09;100.00;101488.59;5289313;28;20500;-82
2023/12/27 09:17:47;;;;;;;7.53;4.95;;;;;;;9.09;100.00;101480.75;5286042;28;20047;-82
2023/12/27 09:20:19;;;;;;;8.93;4.72;;;;;;;9.09;100.00;101472.91;5286067;28;20024;-82
2023/12/27 09:22:51;;;;;;;6.63;4.60;;;;;;;9.13;100.00;101476.97;5290900;28;20030;-82
2023/12/27 09:25:23;;;;;;;6.60;4.18;;;;;;;9.15;100.00;101480.34;5289334;28;20024;-82
2023/12/27 09:27:55;;;;;;;7.35;4.50;;;;;;;9.20;100.00;101465.16;5287059;28;20123;-82
2023/12/27 09:30:26;;;;;;;6.00;4.55;;;;;;;9.20;100.00;101471.22;5285850;28;20032;-82
2023/12/27 09:32:58;;;;;;;5.68;4.00;;;;;;;9.22;100.00;101460.66;5292312;28;20032;-82
2023/12/27 09:35:31;;;;;;;6.28;4.00;;;;;;;9.22;100.00;101455.44;5289124;28;20039;-82
2023/12/27 09:38:03;;;;;;;5.53;3.80;;;;;;;9.29;100.00;101464.53;5288405;28;20024;-82
2023/12/27 09:40:35;;;;;;;6.55;4.15;;;;;;;9.27;100.00;101454.16;5289234;28;21506;-82
2023/12/27 09:43:08;;;;;;;5.50;4.28;;;;;;;9.27;100.00;101446.31;5286802;28;20032;-81
2023/12/27 09:45:41;;;;;;;4.30;3.88;;;;;;;9.40;100.00;101453.34;5288002;28;20168;-81
2023/12/27 09:48:14;;;;;;;4.43;3.72;;;;;;;9.42;100.00;101447.03;5287069;28;20028;-81
2023/12/27 09:50:47;;;;;;;3.88;3.47;;;;;;;9.45;100.00;101444.22;5288584;28;20464;-81
2023/12/27 09:53:19;;;;;;;6.32;3.80;;;;;;;9.54;100.00;101452.34;5288069;28;20469;-82
2023/12/27 09:55:52;;;;;;;5.25;3.78;;;;;;;9.59;100.00;101434.56;5288402;28;20119;-81
2023/12/27 09:58:27;;;;;;;5.85;4.03;;;;;;;9.66;100.00;101448.84;5285900;28;20035;-81
2023/12/27 10:01:01;;;;;;;6.22;3.75;;;;;;;9.66;100.00;101438.38;5286275;28;20048;-82
2023/12/27 10:03:35;;;;;;;4.35;3.10;;;;;;;9.67;100.00;101437.47;5286191;28;20044;-82
2023/12/27 10:06:25;;;;;;;5.55;2.50;;;;;;;9.85;100.00;101450.97;5289856;28;20808;-81
2023/12/27 10:08:57;;;;;;;3.63;2.65;;;;;;;9.68;100.00;101449.59;5286971;28;20494;-81
2023/12/27 10:11:31;;;;;;;4.32;1.80;;;;;;;9.84;100.00;101441.47;5286296;28;20296;-82
2023/12/27 10:14:04;;;;;;;2.72;1.52;;;;;;;9.88;100.00;101433.28;5287189;28;20028;-82
2023/12/27 10:16:36;;;;;;;2.78;1.70;;;;;;;9.89;100.00;101445.44;5288181;28;20032;-82
2023/12/27 10:19:41;;;;;;;4.22;1.50;;;;;;;10.20;100.00;101428.31;5286052;28;20031;-82
2023/12/27 10:22:13;;;;;;;2.60;1.33;;;;;;;10.07;100.00;101419.69;5289602;28;20036;-82
2023/12/27 10:24:45;;;;;;;3.35;1.50;;;;;;;10.22;100.00;101429.03;5289074;28;20036;-82
2023/12/27 10:27:17;;;;;;;3.65;1.73;;;;;;;10.30;100.00;101422.41;5290056;28;20032;-82
2023/12/27 10:29:49;;;;;;;3.75;1.50;;;;;;;10.32;100.00;101423.16;5291908;28;20132;-82
2023/12/27 10:32:21;;;;;;;4.97;1.63;;;;;;;10.36;100.00;101401.84;5290255;28;20028;-82
2023/12/27 10:34:53;;;;;;;3.88;1.40;;;;;;;10.37;100.00;101400.06;5291452;28;20039;-82
2023/12/27 10:37:26;;;;;;;4.30;1.77;;;;;;;10.38;100.00;101406.97;5292297;28;20028;-82
2023/12/27 10:39:58;;;;;;;8.20;1.67;;;;;;;10.35;100.00;101394.97;5290775;28;20040;-82
2023/12/27 10:42:29;;;;;;;5.53;1.73;;;;;;;10.39;100.00;101388.53;5294602;28;20040;-82
2023/12/27 10:45:01;;;;;;;4.10;1.70;;;;;;;10.44;100.00;101394.25;5294862;28;20100;-82
2023/12/27 10:47:33;;;;;;;5.00;1.80;;;;;;;10.50;100.00;101394.75;5292615;28;20086;-82
2023/12/27 10:50:11;;;;;;;4.65;1.63;;;;;;;10.51;100.00;101391.19;5282819;28;20036;-82
2023/12/27 10:52:46;;;;;;;3.65;1.42;;;;;;;10.57;100.00;101391.56;5292260;28;20037;-82
2023/12/27 10:55:19;;;;;;;3.25;1.88;;;;;;;10.59;100.00;101378.31;5290929;28;20044;-82
2023/12/27 10:57:54;;;;;;;5.50;1.92;;;;;;;10.60;100.00;101370.34;5283501;28;20040;-82
2023/12/27 11:00:28;;;;;;;4.90;1.67;;;;;;;10.62;100.00;101384.16;5290820;28;20478;-82
2023/12/27 11:03:00;;;;;;;7.40;2.08;;;;;;;10.66;100.00;101371.66;5292704;28;20532;-82
2023/12/27 11:05:33;;;;;;;4.25;1.92;;;;;;;10.60;100.00;101359.03;5289294;28;20045;-82
2023/12/27 11:08:06;;;;;;;6.00;2.28;;;;;;;10.56;100.00;101350.56;5293802;28;20033;-82
2023/12/27 11:10:39;;;;;;;5.28;2.45;;;;;;;10.59;100.00;101349.50;5292241;28;20028;-82
2023/12/27 11:13:11;;;;;;;7.50;2.00;;;;;;;10.61;100.00;101353.69;5293796;28;20028;-82
2023/12/27 11:15:45;;;;;;;5.90;2.10;;;;;;;10.57;100.00;101351.41;5292598;28;20032;-81
2023/12/27 11:18:18;;;;;;;7.47;2.30;;;;;;;10.57;100.00;101356.63;5291097;28;20032;-82
2023/12/27 11:20:51;;;;;;;8.10;2.25;;;;;;;10.52;100.00;101346.50;5284090;28;20047;-82
2023/12/27 11:23:24;;;;;;;6.43;2.08;;;;;;;10.55;100.00;101335.81;5292598;28;20032;-82
2023/12/27 11:25:59;;;;;;;5.10;1.80;;;;;;;10.59;100.00;101325.94;5294697;28;20032;-82
2023/12/27 11:28:33;;;;;;;7.78;2.45;;;;;;;10.63;100.00;101341.28;5290357;28;20028;-82
2023/12/27 11:31:06;;;;;;;6.38;2.38;;;;;;;10.64;100.00;101342.94;5290538;28;20020;-82
2023/12/27 11:33:38;;;;;;;7.95;2.55;;;;;;;10.74;100.00;101337.84;5292840;28;20040;-81
2023/12/27 11:36:10;;;;;;;6.47;2.70;;;;;;;10.58;100.00;101322.47;5288515;28;20034;-82
2023/12/27 11:38:43;;;;;;;6.93;2.72;;;;;;;10.65;100.00;101322.84;5291395;28;20031;-82
2023/12/27 11:41:15;;;;;;;6.57;2.42;;;;;;;10.63;100.00;101327.34;5276878;28;20044;-81